createdAt,value
2023-05-13T00:02:26.887Z,9.53
2023-05-13T00:07:28.388Z,9.48
2023-05-13T00:12:31.144Z,9.38
2023-05-13T00:17:32.520Z,9.32
2023-05-13T00:22:33.832Z,9.39
2023-05-13T00:27:35.316Z,9.31
2023-05-13T00:32:37.185Z,9.33
2023-05-13T00:37:38.873Z,9.33
2023-05-13T00:42:40.234Z,9.34
2023-05-13T00:47:42.218Z,9.42
2023-05-13T00:52:44.256Z,9.52
2023-05-13T00:57:45.577Z,9.50
2023-05-13T01:03:05.752Z,9.50
2023-05-13T01:08:20.219Z,9.40
2023-05-13T01:13:24.353Z,9.37
2023-05-13T01:18:29.091Z,9.43
2023-05-13T01:23:30.501Z,9.36
2023-05-13T01:28:31.844Z,9.40
2023-05-13T01:33:33.395Z,9.37
2023-05-13T01:38:35.913Z,9.39
2023-05-13T01:43:37.237Z,9.23
2023-05-13T01:48:38.609Z,9.39
2023-05-13T01:53:40.094Z,9.34
2023-05-13T01:58:41.666Z,9.25
2023-05-13T02:03:43.260Z,9.29
2023-05-13T02:08:44.781Z,9.35
2023-05-13T02:13:46.216Z,9.41
2023-05-13T02:18:47.623Z,9.33
2023-05-13T02:23:49.114Z,9.21
2023-05-13T02:28:50.729Z,9.15
2023-05-13T02:33:52.080Z,9.09
2023-05-13T02:38:53.394Z,9.12
2023-05-13T02:43:54.720Z,9.16
2023-05-13T02:48:56.066Z,9.09
2023-05-13T02:53:57.370Z,9.18
2023-05-13T02:58:58.690Z,9.18
2023-05-13T03:04:00.032Z,9.13
2023-05-13T03:09:01.429Z,9.09
2023-05-13T03:14:02.731Z,9.05
2023-05-13T03:19:04.072Z,9.10
2023-05-13T03:24:05.608Z,9.13
2023-05-13T03:29:06.901Z,9.14
2023-05-13T03:34:08.249Z,9.13
2023-05-13T03:39:10.400Z,9.07
2023-05-13T03:44:11.715Z,8.98
2023-05-13T03:49:13.014Z,8.93
2023-05-13T03:54:14.326Z,8.95
2023-05-13T03:59:15.682Z,8.69
2023-05-13T04:04:16.984Z,8.77
2023-05-13T04:09:18.294Z,8.75
2023-05-13T04:14:19.603Z,8.64
2023-05-13T04:19:20.994Z,8.80
2023-05-13T04:24:22.309Z,8.79
2023-05-13T04:29:23.646Z,8.75
2023-05-13T04:34:25.030Z,8.82
2023-05-13T04:39:26.325Z,8.97
2023-05-13T04:44:27.646Z,8.91
2023-05-13T04:49:28.950Z,9.00
2023-05-13T04:54:30.716Z,9.08
2023-05-13T04:59:32.454Z,9.16
2023-05-13T05:04:33.798Z,9.21
2023-05-13T05:09:35.678Z,9.19
2023-05-13T05:14:38.121Z,9.35
2023-05-13T05:19:39.790Z,9.31
2023-05-13T05:24:41.214Z,9.40
2023-05-13T05:29:42.526Z,9.32
2023-05-13T05:34:43.840Z,9.28
2023-05-13T05:39:45.260Z,9.38
2023-05-13T05:44:47.603Z,9.41
2023-05-13T05:49:48.955Z,9.74
2023-05-13T05:54:50.354Z,9.57
2023-05-13T05:59:51.642Z,9.70
2023-05-13T06:04:52.986Z,10.21
2023-05-13T06:09:54.754Z,11.08
2023-05-13T06:14:56.115Z,12.64
2023-05-13T06:19:57.490Z,14.10
2023-05-13T06:24:58.789Z,13.76
2023-05-13T06:30:00.525Z,14.17
2023-05-13T06:35:01.957Z,16.45
2023-05-13T06:40:04.214Z,16.60
2023-05-13T06:45:06.298Z,14.96
2023-05-13T06:50:07.717Z,15.25
2023-05-13T06:55:10.365Z,15.59
2023-05-13T07:00:12.050Z,17.85
2023-05-13T07:05:13.386Z,19.09
2023-05-13T07:10:14.717Z,17.28
2023-05-13T07:15:16.748Z,19.69
2023-05-13T07:20:22.434Z,19.29
2023-05-13T07:25:24.084Z,21.49
2023-05-13T07:30:25.812Z,21.01
2023-05-13T07:35:27.143Z,21.15
2023-05-13T07:40:28.486Z,21.97
2023-05-13T07:45:29.823Z,20.96
2023-05-13T07:50:31.539Z,21.13
2023-05-13T07:55:32.852Z,22.57
2023-05-13T08:00:34.434Z,22.78
2023-05-13T08:05:35.788Z,25.84
2023-05-13T08:10:37.107Z,24.74
2023-05-13T08:15:38.543Z,26.28
2023-05-13T08:20:40.774Z,25.87
2023-05-13T08:25:42.108Z,24.91
2023-05-13T08:30:44.323Z,24.33
2023-05-13T08:35:46.619Z,24.80
2023-05-13T08:40:47.956Z,25.26
2023-05-13T08:45:51.690Z,25.93
2023-05-13T08:50:53.036Z,28.08
2023-05-13T08:55:54.681Z,25.74
2023-05-13T09:00:56.444Z,25.61
2023-05-13T09:06:00.274Z,26.56
2023-05-13T09:11:01.770Z,27.46
2023-05-13T09:16:03.218Z,27.05
2023-05-13T09:21:24.582Z,26.57
2023-05-13T09:26:29.676Z,27.57
2023-05-13T09:31:33.915Z,27.69
2023-05-13T09:36:35.516Z,28.80
2023-05-13T09:41:36.926Z,26.17
2023-05-13T09:46:38.257Z,26.37
2023-05-13T09:51:39.606Z,27.22
2023-05-13T09:56:40.965Z,27.82
2023-05-13T10:01:42.608Z,26.02
2023-05-13T10:06:45.297Z,27.17
2023-05-13T10:11:47.624Z,27.15
2023-05-13T10:16:49.627Z,26.13
2023-05-13T10:21:52.456Z,27.17
2023-05-13T10:26:53.973Z,26.68
2023-05-13T10:31:55.786Z,27.55
2023-05-13T10:37:15.711Z,26.79
2023-05-13T10:42:30.689Z,25.85
2023-05-13T10:47:32.971Z,24.74
2023-05-13T10:52:46.520Z,23.38
2023-05-13T10:58:03.784Z,22.03
2023-05-13T11:03:34.543Z,21.42
2023-05-13T11:08:36.730Z,21.51
2023-05-13T11:13:38.135Z,20.83
2023-05-13T11:18:39.525Z,19.74
2023-05-13T11:23:55.946Z,19.58
2023-05-13T11:28:58.690Z,23.92
2023-05-13T11:34:06.080Z,22.35
2023-05-13T11:39:08.627Z,21.35
2023-05-13T11:44:11.311Z,20.35
2023-05-13T11:49:12.622Z,17.94
2023-05-13T11:54:13.927Z,17.20
2023-05-13T11:59:15.513Z,17.36
2023-05-13T12:04:17.073Z,16.32
2023-05-13T12:09:21.921Z,16.28
2023-05-13T12:14:25.855Z,15.98
2023-05-13T12:19:28.393Z,15.54
2023-05-13T12:24:32.981Z,15.56
2023-05-13T12:29:41.125Z,14.74
2023-05-13T12:34:47.862Z,14.55
2023-05-13T12:39:49.175Z,14.74
2023-05-13T12:44:50.507Z,15.09
2023-05-13T12:49:52.840Z,15.13
2023-05-13T12:54:54.153Z,15.11
2023-05-13T12:59:55.438Z,15.34
2023-05-13T13:04:56.750Z,15.88
2023-05-13T13:09:58.038Z,17.27
2023-05-13T13:14:59.332Z,17.39
2023-05-13T13:20:00.623Z,18.25
2023-05-13T13:25:01.907Z,18.13
2023-05-13T13:30:03.364Z,17.54
2023-05-13T13:35:05.587Z,18.29
2023-05-13T13:40:07.226Z,18.87
2023-05-13T13:45:09.016Z,18.84
2023-05-13T13:50:10.598Z,19.19
2023-05-13T13:55:12.158Z,19.48
2023-05-13T14:00:14.653Z,20.23
2023-05-13T14:05:16.097Z,19.71
2023-05-13T14:10:17.505Z,19.49
2023-05-13T14:15:18.812Z,20.02
2023-05-13T14:20:22.130Z,20.74
2023-05-13T14:25:23.759Z,20.86
2023-05-13T14:30:27.481Z,21.50
2023-05-13T14:35:28.879Z,21.69
2023-05-13T14:40:30.649Z,21.69
2023-05-13T14:45:31.970Z,20.70
2023-05-13T14:50:33.297Z,20.43
2023-05-13T14:55:34.719Z,20.41
2023-05-13T15:00:39.802Z,20.68
2023-05-13T15:05:43.882Z,20.71
2023-05-13T15:10:45.592Z,20.80
2023-05-13T15:15:47.015Z,20.92
2023-05-13T15:20:48.301Z,19.89
2023-05-13T15:25:49.593Z,20.00
2023-05-13T15:30:51.044Z,20.06
2023-05-13T15:35:52.664Z,19.24
2023-05-13T15:40:53.985Z,19.00
2023-05-13T15:45:55.432Z,18.62
2023-05-13T15:50:56.877Z,17.23
2023-05-13T15:55:58.172Z,16.22
2023-05-13T16:00:59.526Z,15.96
2023-05-13T16:06:00.821Z,15.49
2023-05-13T16:11:02.259Z,15.56
2023-05-13T16:16:03.708Z,15.62
2023-05-13T16:21:06.842Z,15.78
2023-05-13T16:26:08.138Z,15.87
2023-05-13T16:31:09.453Z,15.86
2023-05-13T16:36:11.935Z,15.76
2023-05-13T16:41:13.327Z,15.64
2023-05-13T16:46:15.453Z,15.70
2023-05-13T16:51:18.653Z,15.63
2023-05-13T16:56:19.928Z,15.79
2023-05-13T17:01:21.279Z,15.77
2023-05-13T17:06:22.620Z,15.73
2023-05-13T17:11:24.306Z,15.75
2023-05-13T17:16:25.818Z,15.77
2023-05-13T17:21:27.195Z,15.68
2023-05-13T17:26:28.527Z,15.61
2023-05-13T17:31:30.111Z,15.59
2023-05-13T17:36:32.655Z,15.54
2023-05-13T17:41:33.989Z,15.51
2023-05-13T17:46:37.322Z,15.45
2023-05-13T17:51:38.642Z,15.37
2023-05-13T17:56:39.993Z,15.27
2023-05-13T18:01:41.395Z,15.18
2023-05-13T18:06:42.762Z,15.08
2023-05-13T18:11:45.195Z,15.06
2023-05-13T18:16:46.542Z,15.21
2023-05-13T18:21:47.858Z,15.37
2023-05-13T18:26:49.356Z,15.47
2023-05-13T18:31:50.771Z,15.63
2023-05-13T18:36:52.886Z,15.22
2023-05-13T18:41:54.270Z,15.09
2023-05-13T18:46:55.610Z,15.14
2023-05-13T18:51:56.907Z,14.95
2023-05-13T18:56:58.196Z,14.75
2023-05-13T19:01:59.660Z,14.56
2023-05-13T19:07:01.407Z,14.35
2023-05-13T19:12:02.886Z,14.20
2023-05-13T19:17:04.316Z,13.82
2023-05-13T19:22:05.770Z,13.66
2023-05-13T19:27:07.097Z,13.35
2023-05-13T19:32:08.423Z,13.10
2023-05-13T19:37:09.732Z,12.97
2023-05-13T19:42:11.125Z,12.79
2023-05-13T19:47:12.435Z,12.63
2023-05-13T19:52:13.848Z,12.39
2023-05-13T19:57:15.205Z,12.28
2023-05-13T20:02:16.962Z,12.00
2023-05-13T20:07:18.493Z,11.92
2023-05-13T20:12:19.861Z,11.78
2023-05-13T20:17:21.891Z,11.55
2023-05-13T20:22:23.326Z,11.30
2023-05-13T20:27:24.629Z,11.14
2023-05-13T20:32:25.974Z,10.97
2023-05-13T20:37:28.444Z,10.90
2023-05-13T20:42:29.884Z,10.71
2023-05-13T20:47:31.470Z,10.56
2023-05-13T20:52:33.597Z,10.51
2023-05-13T20:57:35.040Z,10.43
2023-05-13T21:02:36.524Z,10.28
2023-05-13T21:07:37.862Z,10.18
2023-05-13T21:12:39.292Z,10.08
2023-05-13T21:17:40.700Z,10.01
2023-05-13T21:22:42.070Z,9.92
2023-05-13T21:27:43.370Z,9.84
2023-05-13T21:32:44.757Z,9.75
2023-05-13T21:37:47.572Z,9.61
2023-05-13T21:42:49.045Z,9.59
2023-05-13T21:47:50.402Z,9.48
2023-05-13T21:52:51.733Z,9.31
2023-05-13T21:57:53.155Z,9.32
2023-05-13T22:02:57.165Z,9.26
2023-05-13T22:08:00.177Z,9.21
2023-05-13T22:13:01.643Z,9.17
2023-05-13T22:18:03.089Z,9.10
2023-05-13T22:23:04.438Z,9.03
2023-05-13T22:28:06.257Z,8.95
2023-05-13T22:33:07.717Z,8.91
2023-05-13T22:38:09.036Z,8.85
2023-05-13T22:43:10.432Z,8.79
2023-05-13T22:48:11.847Z,8.74
2023-05-13T22:53:13.258Z,8.67
2023-05-13T22:58:14.590Z,8.54
2023-05-13T23:03:16.023Z,8.49
2023-05-13T23:08:17.378Z,8.40
2023-05-13T23:13:18.700Z,8.34
2023-05-13T23:18:19.995Z,8.31
2023-05-13T23:23:21.697Z,8.25
2023-05-13T23:28:23.018Z,8.23
2023-05-13T23:33:24.324Z,8.26
2023-05-13T23:38:25.672Z,8.16
2023-05-13T23:43:26.969Z,8.06
2023-05-13T23:48:28.425Z,7.96
2023-05-13T23:53:29.734Z,7.86
2023-05-13T23:58:31.033Z,7.79
